Disclaimer

Please do not use the information listed here in-flight or in-navigation, as they are not provided to us by the airports but are provided by volunteers, so they might be outdated.

Search


Regions


Airport information page

No radio frequency information is available.

Airport informations:
Latitude: 59° 35' 22.00" N
Longitude: 016° 38' 01.00" E
Elevation: 21 feet - 6 meters
Operating hours: 24 hour operations
Operating agency: Civil government, landing fees and diplomatic clearance may be required
Timezone: UTC+1(+2DT) - Last Sunday in March to last Sunday in October
Fuel: Jet A1, without icing nhibitor.

100/130 MIL Spec, low lead, aviation gasoline (BLUE)

Runway information:
01/19 - 8468 x 164 feet< - >2581 x 50 meters

Recent METARs:
ESOW 211820Z AUTO VRB02KT 9999 OVC021/// 01/M03 Q1034
ESOW 211850Z AUTO VRB03KT 9999 OVC021/// 01/M04 Q1034
ESOW 211920Z AUTO 26004KT 190V320 9999 OVC021/// 01/M04 Q1033

Airport on the map: